Archival Weather

Snohomish County (Paine Fld)

Everett, Washington (KPAE)

Report from: Saturday, November 11, 2023 7:55 AM PST
Current time: Sunday, June 16, 2024 11:58 PM PDT

Current weather – Weather history – Daily summaries
Weather forecast

Present weatherLight rain
Temperature8.9°C (48.0°F)
Wind chill5.6°C (42.1°F)
Dew point7.2°C (45.0°F)
Winds 13 kts (6.7 m/s, 15 mph) South-Southwest (200°)
Wind gusts 20 kts (10.3 m/s, 23 mph)
Visibility10 mi. (16.1 km)
Clouds Ceiling: Overcast 400 ft. (122 m)
Altimeter29.77 in.Hg (1008 mB)
PrecipitiationTrace
Relative humidity89 %
Density altitude-411 ft. (-125 m)
Remarks Special weather observation
Automated weather observing station with precipitation discriminator
Flight conditions Low Instrument Meteorological Conditions
Raw dataSPUS70 KWBC 111558 SPECI KPAE 111555Z 20013G20KT 10SM -RA OVC004 09/07 A2977 RMK AO2 P0000 T00890072
An error has occurred. This application may no longer respond until reloaded. Reload 🗙